createdAt,value
2019-04-01T00:00:36.688Z,101438.20
2019-04-01T00:03:06.747Z,101438.90
2019-04-01T00:05:35.425Z,101436.95
2019-04-01T00:08:04.101Z,101442.33
2019-04-01T00:10:32.825Z,101439.59
2019-04-01T00:13:01.471Z,101439.93
2019-04-01T00:15:30.137Z,101450.94
2019-04-01T00:17:58.823Z,101447.70
2019-04-01T00:20:27.480Z,101440.13
2019-04-01T00:22:56.230Z,101441.16
2019-04-01T00:25:24.977Z,101442.80
2019-04-01T00:27:53.629Z,101446.14
2019-04-01T00:30:22.276Z,101448.62
2019-04-01T00:32:50.946Z,101449.81
2019-04-01T00:35:19.652Z,101454.67
2019-04-01T00:37:48.307Z,101453.14
2019-04-01T00:40:17.135Z,101450.89
2019-04-01T00:42:56.414Z,101446.55
2019-04-01T00:45:25.501Z,101447.56
2019-04-01T00:47:54.147Z,101443.52
2019-04-01T00:50:22.981Z,101441.36
2019-04-01T00:52:51.651Z,101444.72
2019-04-01T00:55:20.312Z,101445.88
2019-04-01T00:57:48.994Z,101441.83
2019-04-01T01:00:19.072Z,101437.33
2019-04-01T01:02:47.728Z,101439.34
2019-04-01T01:05:16.402Z,101434.82
2019-04-01T01:07:45.078Z,101439.69
2019-04-01T01:10:14.019Z,101438.19
2019-04-01T01:12:42.679Z,101437.94
2019-04-01T01:15:11.505Z,101436.58
2019-04-01T01:17:40.513Z,101431.80
2019-04-01T01:20:09.283Z,101432.05
2019-04-01T01:22:37.935Z,101431.65
2019-04-01T01:25:06.700Z,101427.60
2019-04-01T01:27:35.348Z,101427.98
2019-04-01T01:30:04.304Z,101432.26
2019-04-01T01:32:32.976Z,101428.12
2019-04-01T01:35:01.635Z,101435.73
2019-04-01T01:37:30.395Z,101430.74
2019-04-01T01:39:59.045Z,101435.38
2019-04-01T01:42:27.777Z,101430.14
2019-04-01T01:44:56.372Z,101419.08
2019-04-01T01:47:25.040Z,101420.13
2019-04-01T01:49:53.694Z,101416.48
2019-04-01T01:52:22.368Z,101416.09
2019-04-01T01:54:51.021Z,101418.20
2019-04-01T01:57:19.680Z,101412.89
2019-04-01T01:59:48.410Z,101414.94
2019-04-01T02:02:17.010Z,101412.23
2019-04-01T02:04:45.681Z,101419.08
2019-04-01T02:07:14.358Z,101418.98
2019-04-01T02:09:43.023Z,101420.10
2019-04-01T02:12:11.686Z,101407.88
2019-04-01T02:14:40.375Z,101411.89
2019-04-01T02:17:09.054Z,101408.23
2019-04-01T02:19:37.709Z,101405.52
2019-04-01T02:22:06.380Z,101404.52
2019-04-01T02:24:35.108Z,101410.17
2019-04-01T02:27:03.841Z,101411.58
2019-04-01T02:29:32.525Z,101412.69
2019-04-01T02:32:01.214Z,101405.75
2019-04-01T02:34:29.925Z,101407.41
2019-04-01T02:36:58.530Z,101404.93
2019-04-01T02:39:27.205Z,101403.75
2019-04-01T02:41:55.971Z,101397.67
2019-04-01T02:44:24.874Z,101397.72
2019-04-01T02:46:53.527Z,101401.45
2019-04-01T02:49:22.212Z,101398.88
2019-04-01T02:51:50.872Z,101403.98
2019-04-01T02:54:19.540Z,101411.11
2019-04-01T02:56:48.211Z,101410.41
2019-04-01T02:59:16.862Z,101409.02
2019-04-01T03:01:45.519Z,101412.08
2019-04-01T03:04:14.225Z,101412.44
2019-04-01T03:06:42.886Z,101408.89
2019-04-01T03:09:11.605Z,101410.66
2019-04-01T03:11:40.280Z,101411.12
2019-04-01T03:14:08.934Z,101404.81
2019-04-01T03:16:37.712Z,101406.37
2019-04-01T03:19:06.456Z,101406.48
2019-04-01T03:21:35.110Z,101406.23
2019-04-01T03:24:03.861Z,101399.39
2019-04-01T03:26:32.515Z,101396.30
2019-04-01T03:29:01.192Z,101401.97
2019-04-01T03:31:29.847Z,101401.39
2019-04-01T03:33:58.510Z,101404.83
2019-04-01T03:36:27.185Z,101404.59
2019-04-01T03:38:55.846Z,101399.27
2019-04-01T03:41:24.515Z,101399.27
2019-04-01T03:43:53.179Z,101401.66
2019-04-01T03:46:21.839Z,101398.80
2019-04-01T03:48:50.492Z,101404.70
2019-04-01T03:51:19.183Z,101406.84
2019-04-01T03:53:47.930Z,101403.91
2019-04-01T03:56:16.592Z,101405.69
2019-04-01T03:58:45.273Z,101404.27
2019-04-01T04:01:13.937Z,101402.72
2019-04-01T04:03:42.593Z,101400.94
2019-04-01T04:06:11.282Z,101408.41
2019-04-01T04:08:39.952Z,101399.99
2019-04-01T04:11:08.609Z,101396.20
2019-04-01T04:13:37.298Z,101399.37
2019-04-01T04:16:05.960Z,101401.68
2019-04-01T04:18:34.633Z,101404.53
2019-04-01T04:21:03.367Z,101406.28
2019-04-01T04:23:32.009Z,101405.96
2019-04-01T04:26:00.675Z,101402.47
2019-04-01T04:28:29.364Z,101402.21
2019-04-01T04:30:58.024Z,101406.87
2019-04-01T04:33:26.687Z,101406.87
2019-04-01T04:35:55.410Z,101412.14
2019-04-01T04:38:24.076Z,101412.14
2019-04-01T04:40:52.738Z,101417.05
2019-04-01T04:43:21.413Z,101416.99
2019-04-01T04:45:50.138Z,101416.99
2019-04-01T04:48:18.846Z,101422.23
2019-04-01T04:50:47.510Z,101417.13
2019-04-01T04:53:16.168Z,101416.45
2019-04-01T04:55:44.852Z,101416.45
2019-04-01T04:58:13.517Z,101415.27
2019-04-01T05:00:42.213Z,101422.88
2019-04-01T05:03:10.880Z,101425.20
2019-04-01T05:05:39.571Z,101424.93
2019-04-01T05:08:08.244Z,101427.44
2019-04-01T05:10:36.905Z,101427.44
2019-04-01T05:13:05.607Z,101426.50
2019-04-01T05:15:34.275Z,101426.37
2019-04-01T05:18:02.968Z,101426.37
2019-04-01T05:20:32.849Z,101430.73
2019-04-01T05:23:03.089Z,101428.86
2019-04-01T05:25:32.424Z,101429.96
2019-04-01T05:28:03.465Z,101426.08
2019-04-01T05:30:34.032Z,101427.18
2019-04-01T05:33:04.271Z,101432.52
2019-04-01T05:35:35.729Z,101434.42
2019-04-01T05:38:05.265Z,101435.88
2019-04-01T05:40:34.794Z,101443.90
2019-04-01T05:43:03.664Z,101439.80
2019-04-01T05:45:32.413Z,101438.50
2019-04-01T05:48:01.233Z,101439.55
2019-04-01T05:50:29.994Z,101446.78
2019-04-01T05:52:58.661Z,101446.99
2019-04-01T05:55:27.316Z,101442.22
2019-04-01T05:57:56.073Z,101446.09
2019-04-01T06:00:30.381Z,101444.48
2019-04-01T06:02:59.340Z,101442.66
2019-04-01T06:05:28.073Z,101445.37
2019-04-01T06:07:56.736Z,101443.06
2019-04-01T06:10:25.459Z,101443.68
2019-04-01T06:12:54.217Z,101446.09
2019-04-01T06:15:22.952Z,101439.22
2019-04-01T06:17:51.824Z,101444.09
2019-04-01T06:20:20.479Z,101446.05
2019-04-01T06:22:49.513Z,101443.74
2019-04-01T06:25:18.364Z,101440.98
2019-04-01T06:27:47.086Z,101442.01
2019-04-01T06:30:15.892Z,101438.90
2019-04-01T06:32:44.566Z,101446.47
2019-04-01T06:35:13.305Z,101439.55
2019-04-01T06:37:41.977Z,101444.05
2019-04-01T06:40:10.780Z,101444.65
2019-04-01T06:42:39.625Z,101444.77
2019-04-01T06:45:08.642Z,101443.95
2019-04-01T06:47:37.316Z,101444.77
2019-04-01T06:50:06.139Z,101443.13
2019-04-01T06:52:34.871Z,101445.34
2019-04-01T06:55:03.635Z,101437.93
2019-04-01T06:57:32.310Z,101442.45
2019-04-01T07:00:01.031Z,101435.70
2019-04-01T07:02:29.707Z,101432.69
2019-04-01T07:04:58.364Z,101435.35
2019-04-01T07:07:27.713Z,101433.36
2019-04-01T07:09:56.473Z,101428.73
2019-04-01T07:12:25.727Z,101433.64
2019-04-01T07:14:54.461Z,101431.90
2019-04-01T07:17:23.273Z,101424.05
2019-04-01T07:19:51.995Z,101424.55
2019-04-01T07:22:20.916Z,101425.99
2019-04-01T07:24:49.663Z,101424.35
2019-04-01T07:27:18.425Z,101421.67
2019-04-01T07:29:47.456Z,101421.85
2019-04-01T07:32:16.189Z,101423.34
2019-04-01T07:34:45.026Z,101420.55
2019-04-01T07:37:13.830Z,101413.55
2019-04-01T07:39:42.762Z,101414.25
2019-04-01T07:42:11.725Z,101411.43
2019-04-01T07:44:40.521Z,101408.30
2019-04-01T07:47:09.172Z,101413.92
2019-04-01T07:49:37.880Z,101413.07
2019-04-01T07:52:06.498Z,101412.42
2019-04-01T07:54:35.254Z,101405.61
2019-04-01T07:57:04.062Z,101401.44
2019-04-01T07:59:32.719Z,101397.58
2019-04-01T08:02:01.670Z,101396.70
2019-04-01T08:04:30.395Z,101399.17
2019-04-01T08:06:59.208Z,101394.35
2019-04-01T08:09:28.019Z,101394.72
2019-04-01T08:11:56.748Z,101391.16
2019-04-01T08:14:25.704Z,101382.81
2019-04-01T08:16:54.352Z,101379.57
2019-04-01T08:19:23.029Z,101374.98
2019-04-01T08:21:52.529Z,101374.00
2019-04-01T08:24:21.327Z,101377.47
2019-04-01T08:26:50.052Z,101372.29
2019-04-01T08:29:29.482Z,101367.86
2019-04-01T08:31:49.093Z,101376.14
2019-04-01T08:34:17.930Z,101372.95
2019-04-01T08:36:46.662Z,101369.71
2019-04-01T08:39:15.662Z,101374.97
2019-04-01T08:41:44.503Z,101360.43
2019-04-01T08:44:13.225Z,101363.55
2019-04-01T08:46:42.040Z,101362.06
2019-04-01T08:49:10.794Z,101359.34
2019-04-01T08:51:39.646Z,101363.62
2019-04-01T08:54:08.437Z,101352.88
2019-04-01T08:56:38.135Z,101354.88
2019-04-01T08:59:07.186Z,101347.67
2019-04-01T09:01:35.998Z,101356.08
2019-04-01T09:04:04.827Z,101353.31
2019-04-01T09:06:33.504Z,101346.16
2019-04-01T09:09:04.186Z,101345.66
2019-04-01T09:11:33.710Z,101346.48
2019-04-01T09:14:02.769Z,101345.09
2019-04-01T09:16:31.829Z,101340.28
2019-04-01T09:19:00.536Z,101348.98
2019-04-01T09:21:29.224Z,101342.24
2019-04-01T09:23:57.880Z,101345.36
2019-04-01T09:26:26.565Z,101330.91
2019-04-01T09:28:55.221Z,101331.13
2019-04-01T09:31:23.907Z,101325.95
2019-04-01T09:33:52.566Z,101327.39
2019-04-01T09:36:21.253Z,101328.00
2019-04-01T09:38:49.926Z,101321.77
2019-04-01T09:41:18.608Z,101321.14
2019-04-01T09:43:47.267Z,101315.30
2019-04-01T09:46:15.932Z,101310.14
2019-04-01T09:48:44.611Z,101305.83
2019-04-01T09:51:13.306Z,101293.12
2019-04-01T09:53:41.959Z,101296.01
2019-04-01T09:56:10.619Z,101291.00
2019-04-01T09:58:39.302Z,101293.48
2019-04-01T10:01:11.670Z,101291.55
2019-04-01T10:03:40.826Z,101280.51
2019-04-01T10:06:10.582Z,101269.08
2019-04-01T10:08:42.592Z,101264.66
2019-04-01T10:11:12.649Z,101258.72
2019-04-01T10:13:40.154Z,101258.00
2019-04-01T10:16:08.817Z,101255.04
2019-04-01T10:18:37.504Z,101248.03
2019-04-01T10:21:06.263Z,101247.13
2019-04-01T10:23:34.973Z,101238.64
2019-04-01T10:26:03.719Z,101239.88
2019-04-01T10:28:32.497Z,101231.94
2019-04-01T10:31:01.363Z,101233.22
2019-04-01T10:33:30.024Z,101221.66
2019-04-01T10:35:58.693Z,101224.70
2019-04-01T10:38:27.370Z,101212.87
2019-04-01T10:40:56.075Z,101209.77
2019-04-01T10:43:24.836Z,101209.71
2019-04-01T10:45:53.557Z,101205.77
2019-04-01T10:48:22.287Z,101202.67
2019-04-01T10:50:50.909Z,101186.47
2019-04-01T10:53:19.608Z,101190.95
2019-04-01T10:55:48.375Z,101188.49
2019-04-01T10:58:17.088Z,101186.59
2019-04-01T11:00:45.754Z,101185.27
2019-04-01T11:03:14.579Z,101191.12
2019-04-01T11:05:43.434Z,101185.02
2019-04-01T11:08:12.243Z,101178.31
2019-04-01T11:10:40.949Z,101180.45
2019-04-01T11:13:09.650Z,101179.91
2019-04-01T11:15:38.326Z,101177.02
2019-04-01T11:18:07.065Z,101169.55
2019-04-01T11:20:36.153Z,101177.34
2019-04-01T11:23:05.628Z,101172.09
2019-04-01T11:25:34.353Z,101166.92
2019-04-01T11:28:03.046Z,101161.04
2019-04-01T11:30:31.835Z,101151.28
2019-04-01T11:33:00.582Z,101154.00
2019-04-01T11:35:29.303Z,101145.82
2019-04-01T11:37:57.994Z,101145.48
2019-04-01T11:40:26.751Z,101136.72
2019-04-01T11:42:55.449Z,101134.78
2019-04-01T11:45:24.220Z,101141.02
2019-04-01T11:47:52.908Z,101128.95
2019-04-01T11:50:21.698Z,101128.96
2019-04-01T11:52:50.511Z,101127.95
2019-04-01T11:55:19.185Z,101123.17
2019-04-01T11:57:47.852Z,101124.86
2019-04-01T12:00:18.100Z,101114.19
2019-04-01T12:02:46.768Z,101104.39
2019-04-01T12:05:15.594Z,101096.92
2019-04-01T12:07:44.439Z,101095.85
2019-04-01T12:10:13.259Z,101087.48
2019-04-01T12:12:41.939Z,101085.64
2019-04-01T12:15:12.297Z,101081.94
2019-04-01T12:17:42.063Z,101072.98
2019-04-01T12:20:11.095Z,101073.80
2019-04-01T12:22:40.788Z,101072.52
2019-04-01T12:25:10.324Z,101064.42
2019-04-01T12:27:38.976Z,101060.55
2019-04-01T12:30:08.933Z,101058.33
2019-04-01T12:32:37.636Z,101046.80
2019-04-01T12:35:06.544Z,101046.53
2019-04-01T12:37:35.219Z,101050.84
2019-04-01T12:40:04.241Z,101044.89
2019-04-01T12:42:32.949Z,101038.73
2019-04-01T12:45:01.591Z,101039.85
2019-04-01T12:47:30.240Z,101028.17
2019-04-01T12:49:58.927Z,101024.97
2019-04-01T12:52:27.584Z,101028.36
2019-04-01T12:54:56.259Z,101020.36
2019-04-01T12:57:24.933Z,101012.38
2019-04-01T12:59:53.838Z,101002.81
2019-04-01T13:02:22.549Z,101000.45
2019-04-01T13:04:51.622Z,100996.06
2019-04-01T13:07:20.789Z,100990.54
2019-04-01T13:09:49.506Z,100984.48
2019-04-01T13:12:18.234Z,100982.97
2019-04-01T13:14:46.873Z,100977.62
2019-04-01T13:17:15.535Z,100975.30
2019-04-01T13:19:45.036Z,100969.19
2019-04-01T13:22:14.140Z,100964.45
2019-04-01T13:24:42.827Z,100968.86
2019-04-01T13:27:11.506Z,100961.58
2019-04-01T13:29:40.162Z,100956.87
2019-04-01T13:32:08.833Z,100961.91
2019-04-01T13:34:37.492Z,100951.67
2019-04-01T13:37:06.176Z,100944.56
2019-04-01T13:39:34.915Z,100941.87
2019-04-01T13:42:03.694Z,100944.61
2019-04-01T13:44:37.236Z,100939.81
2019-04-01T13:47:02.732Z,100936.42
2019-04-01T13:49:31.415Z,100933.41
2019-04-01T13:52:03.507Z,100931.09
2019-04-01T13:54:30.506Z,100921.91
2019-04-01T13:56:59.338Z,100918.37
2019-04-01T13:59:27.993Z,100918.66
2019-04-01T14:01:57.112Z,100910.68
2019-04-01T14:04:27.304Z,100899.10
2019-04-01T14:06:56.173Z,100902.48
2019-04-01T14:09:24.829Z,100901.95
2019-04-01T14:11:53.505Z,100904.59
2019-04-01T14:14:22.193Z,100891.20
2019-04-01T14:16:50.920Z,100883.55
2019-04-01T14:19:19.606Z,100882.47
2019-04-01T14:21:48.302Z,100870.47
2019-04-01T14:24:16.978Z,100878.69
2019-04-01T14:26:45.659Z,100878.48
2019-04-01T14:29:16.456Z,100867.09
2019-04-01T14:31:44.739Z,100860.29
2019-04-01T14:34:22.440Z,100853.06
2019-04-01T14:36:43.803Z,100845.84
2019-04-01T14:39:12.553Z,100846.97
2019-04-01T14:41:41.242Z,100844.30
2019-04-01T14:44:09.895Z,100838.17
2019-04-01T14:46:38.552Z,100834.36
2019-04-01T14:49:07.239Z,100828.88
2019-04-01T14:51:35.903Z,100821.02
2019-04-01T14:54:05.884Z,100813.72
2019-04-01T14:56:34.690Z,100817.33
2019-04-01T14:59:03.380Z,100810.48
2019-04-01T15:01:32.107Z,100806.13
2019-04-01T15:04:00.772Z,100798.78
2019-04-01T15:06:29.547Z,100798.19
2019-04-01T15:08:58.211Z,100797.20
2019-04-01T15:11:26.875Z,100788.21
2019-04-01T15:13:55.555Z,100785.88
2019-04-01T15:16:24.238Z,100778.78
2019-04-01T15:18:53.752Z,100778.87
2019-04-01T15:21:22.438Z,100772.30
2019-04-01T15:23:53.258Z,100773.02
2019-04-01T15:26:21.536Z,100771.80
2019-04-01T15:28:50.219Z,100765.79
2019-04-01T15:31:18.884Z,100757.58
2019-04-01T15:33:47.549Z,100754.12
2019-04-01T15:36:16.246Z,100753.52
2019-04-01T15:38:44.900Z,100748.84
2019-04-01T15:41:13.559Z,100745.49
2019-04-01T15:43:42.244Z,100739.44
2019-04-01T15:46:10.940Z,100735.45
2019-04-01T15:48:39.670Z,100728.39
2019-04-01T15:51:08.330Z,100732.48
2019-04-01T15:53:37.012Z,100723.25
2019-04-01T15:56:05.686Z,100724.89
2019-04-01T15:58:35.038Z,100725.28
2019-04-01T16:01:03.872Z,100718.27
2019-04-01T16:03:33.115Z,100713.22
2019-04-01T16:06:02.963Z,100713.86
2019-04-01T16:08:32.359Z,100714.58
2019-04-01T16:11:01.055Z,100709.02
2019-04-01T16:13:29.906Z,100708.84
2019-04-01T16:15:58.977Z,100702.16
2019-04-01T16:18:27.658Z,100701.98
2019-04-01T16:20:59.333Z,100700.23
2019-04-01T16:23:27.141Z,100700.81
2019-04-01T16:25:56.176Z,100698.78
2019-04-01T16:28:24.869Z,100697.95
2019-04-01T16:30:53.526Z,100694.85
2019-04-01T16:33:22.788Z,100700.88
2019-04-01T16:35:52.380Z,100701.71
2019-04-01T16:38:21.094Z,100700.23
2019-04-01T16:40:52.434Z,100694.16
2019-04-01T16:43:20.225Z,100694.86
2019-04-01T16:45:49.219Z,100691.72
2019-04-01T16:48:17.872Z,100693.42
2019-04-01T16:50:46.688Z,100693.88
2019-04-01T16:53:15.375Z,100694.09
2019-04-01T16:55:44.063Z,100698.37
2019-04-01T16:58:12.806Z,100697.02
2019-04-01T17:00:41.624Z,100692.71
2019-04-01T17:03:13.411Z,100697.70
2019-04-01T17:05:40.778Z,100690.08
2019-04-01T17:08:10.342Z,100692.73
2019-04-01T17:10:39.229Z,100693.11
2019-04-01T17:13:08.740Z,100700.64
2019-04-01T17:15:37.667Z,100697.62
2019-04-01T17:18:06.397Z,100700.86
2019-04-01T17:20:36.523Z,100704.52
2019-04-01T17:23:05.390Z,100704.04
2019-04-01T17:25:34.199Z,100701.05
2019-04-01T17:28:02.860Z,100704.76
2019-04-01T17:30:31.667Z,100707.47
2019-04-01T17:33:00.344Z,100706.05
2019-04-01T17:35:29.071Z,100702.36
2019-04-01T17:37:57.759Z,100702.88
2019-04-01T17:40:26.431Z,100704.81
2019-04-01T17:42:55.087Z,100691.91
2019-04-01T17:45:35.861Z,100701.73
2019-04-01T17:48:05.539Z,100704.48
2019-04-01T17:50:34.386Z,100705.55
2019-04-01T17:53:04.773Z,100700.42
2019-04-01T17:55:33.494Z,100705.18
2019-04-01T17:58:02.167Z,100699.36
2019-04-01T18:00:31.651Z,100698.78
2019-04-01T18:03:00.304Z,100701.16
2019-04-01T18:05:28.965Z,100704.52
2019-04-01T18:07:57.648Z,100708.20
2019-04-01T18:10:28.115Z,100710.95
2019-04-01T18:12:56.911Z,100707.56
2019-04-01T18:15:25.597Z,100715.55
2019-04-01T18:17:54.264Z,100716.03
2019-04-01T18:20:22.910Z,100719.13
2019-04-01T18:22:51.595Z,100716.88
2019-04-01T18:25:21.216Z,100718.92
2019-04-01T18:27:50.203Z,100719.91
2019-04-01T18:30:19.630Z,100717.87
2019-04-01T18:32:52.104Z,100718.56
2019-04-01T18:35:18.775Z,100717.66
2019-04-01T18:37:48.335Z,100727.84
2019-04-01T18:40:31.499Z,100723.87
2019-04-01T18:42:48.365Z,100726.38
2019-04-01T18:45:17.158Z,100721.97
2019-04-01T18:47:45.811Z,100723.62
2019-04-01T18:50:14.769Z,100721.74
2019-04-01T18:52:43.588Z,100726.23
2019-04-01T18:55:12.341Z,100722.94
2019-04-01T18:57:40.996Z,100727.55
2019-04-01T19:00:10.942Z,100729.06
2019-04-01T19:02:39.593Z,100728.02
2019-04-01T19:05:10.196Z,100728.37
2019-04-01T19:07:39.086Z,100728.33
2019-04-01T19:10:08.109Z,100727.34
2019-04-01T19:12:36.793Z,100731.04
2019-04-01T19:15:06.597Z,100729.45
2019-04-01T19:17:35.368Z,100734.86
2019-04-01T19:20:04.816Z,100738.00
2019-04-01T19:22:33.544Z,100732.86
2019-04-01T19:25:02.228Z,100740.72
2019-04-01T19:27:30.905Z,100740.45
2019-04-01T19:29:59.572Z,100739.22
2019-04-01T19:32:28.339Z,100737.59
2019-04-01T19:34:57.016Z,100735.91
2019-04-01T19:37:27.216Z,100733.44
2019-04-01T19:39:56.052Z,100732.53
2019-04-01T19:42:24.712Z,100732.70
2019-04-01T19:44:53.404Z,100731.70
2019-04-01T19:47:22.181Z,100735.86
2019-04-01T19:49:51.150Z,100730.89
2019-04-01T19:52:19.842Z,100724.00
2019-04-01T19:54:48.495Z,100729.02
2019-04-01T19:57:17.255Z,100720.59
2019-04-01T19:59:45.939Z,100721.14
2019-04-01T20:02:14.668Z,100718.48
2019-04-01T20:04:43.320Z,100720.30
2019-04-01T20:07:12.005Z,100723.28
2019-04-01T20:09:40.661Z,100714.91
2019-04-01T20:12:09.372Z,100713.94
2019-04-01T20:14:38.036Z,100722.69
2019-04-01T20:17:06.846Z,100716.22
2019-04-01T20:19:35.540Z,100708.67
2019-04-01T20:22:04.455Z,100706.74
2019-04-01T20:24:33.119Z,100711.52
2019-04-01T20:27:01.804Z,100699.70
2019-04-01T20:29:30.568Z,100702.42
2019-04-01T20:31:59.196Z,100700.63
2019-04-01T20:34:27.900Z,100693.75
2019-04-01T20:36:56.546Z,100692.95
2019-04-01T20:39:25.577Z,100687.36
2019-04-01T20:41:54.454Z,100684.89
2019-04-01T20:44:23.131Z,100678.98
2019-04-01T20:46:51.813Z,100681.80
2019-04-01T20:49:20.489Z,100681.98
2019-04-01T20:51:49.167Z,100676.84
2019-04-01T20:54:17.822Z,100672.62
2019-04-01T20:56:46.502Z,100667.84
2019-04-01T20:59:15.575Z,100663.45
2019-04-01T21:01:44.204Z,100664.73
2019-04-01T21:04:12.862Z,100653.42
2019-04-01T21:06:41.549Z,100649.38
2019-04-01T21:09:10.212Z,100648.50
2019-04-01T21:11:39.253Z,100642.62
2019-04-01T21:14:08.755Z,100644.44
2019-04-01T21:16:37.419Z,100639.84
2019-04-01T21:19:06.479Z,100640.20
2019-04-01T21:21:35.184Z,100636.27
2019-04-01T21:24:05.199Z,100632.16
2019-04-01T21:26:33.953Z,100632.98
2019-04-01T21:29:02.734Z,100629.40
2019-04-01T21:31:31.388Z,100632.69
2019-04-01T21:34:00.047Z,100633.67
2019-04-01T21:36:28.731Z,100625.98
2019-04-01T21:38:57.412Z,100622.52
2019-04-01T21:41:26.105Z,100617.28
2019-04-01T21:43:54.763Z,100614.83
2019-04-01T21:46:24.399Z,100607.30
2019-04-01T21:48:53.155Z,100603.20
2019-04-01T21:51:21.819Z,100609.75
2019-04-01T21:53:50.475Z,100602.05
2019-04-01T21:56:19.163Z,100600.91
2019-04-01T21:58:48.233Z,100601.89
2019-04-01T22:01:17.928Z,100595.83
2019-04-01T22:03:46.600Z,100595.83
2019-04-01T22:06:15.362Z,100598.45
2019-04-01T22:08:44.041Z,100595.33
2019-04-01T22:11:12.703Z,100589.11
2019-04-01T22:13:41.352Z,100581.91
2019-04-01T22:16:10.031Z,100575.98
2019-04-01T22:18:38.685Z,100568.13
2019-04-01T22:21:07.333Z,100566.81
2019-04-01T22:23:36.002Z,100560.75
2019-04-01T22:26:04.733Z,100567.80
2019-04-01T22:28:33.505Z,100568.28
2019-04-01T22:31:02.380Z,100562.87
2019-04-01T22:33:31.023Z,100556.02
2019-04-01T22:35:59.673Z,100550.59
2019-04-01T22:38:28.359Z,100557.48
2019-04-01T22:40:57.006Z,100546.98
2019-04-01T22:43:25.821Z,100543.67
2019-04-01T22:45:54.499Z,100547.42
2019-04-01T22:48:23.158Z,100538.09
2019-04-01T22:50:51.801Z,100531.40
2019-04-01T22:53:20.464Z,100534.16
2019-04-01T22:55:49.170Z,100532.20
2019-04-01T22:58:17.830Z,100531.21
2019-04-01T23:00:47.181Z,100528.44
2019-04-01T23:03:16.360Z,100519.08
2019-04-01T23:05:45.002Z,100523.33
2019-04-01T23:08:13.730Z,100512.34
2019-04-01T23:10:42.404Z,100512.34
2019-04-01T23:13:11.088Z,100514.64
2019-04-01T23:15:39.736Z,100513.83
2019-04-01T23:18:08.385Z,100509.95
2019-04-01T23:20:37.063Z,100509.91
2019-04-01T23:23:05.710Z,100512.55
2019-04-01T23:25:34.391Z,100504.86
2019-04-01T23:28:03.064Z,100502.06
2019-04-01T23:30:31.746Z,100500.52
2019-04-01T23:33:00.426Z,100493.39
2019-04-01T23:35:29.105Z,100499.59
2019-04-01T23:37:57.757Z,100496.95
2019-04-01T23:40:26.409Z,100491.20
2019-04-01T23:42:55.111Z,100482.78
2019-04-01T23:45:23.756Z,100480.52
2019-04-01T23:47:52.412Z,100480.73
2019-04-01T23:50:21.082Z,100474.66
2019-04-01T23:52:49.735Z,100477.30
2019-04-01T23:55:18.413Z,100473.38
2019-04-01T23:57:47.079Z,100471.67
